Santa Rosa, CA (95406)

7:29 AM PDT on August 20, 2014 (GMT -0700)
Murdock Terrace | Change Station
CLOSE
Current Station
Personal Weather Station
Location: Santa Rosa, CA
Elevation: 184 ft
Nearby Weather Stations

Elev 184 ft 38.46 °N, 122.71 °W | Updated 11 minutes ago

Overcast
Overcast
58.3 °F
Feels Like 58.3 °F
N
0.0
Wind Variable Wind from WNW

Today
High -- | Low -- °F
--% Chance of Precip.
Yesterday
High -- | Low -- °F
Precip. -- in
6:29 AM 7:58 PM
Waning Crescent, 21% visible
Pressure 29.86 in
Visibility 7.0 miles
Clouds Few 600 ft
Overcast 1300 ft
Dew Point 57 °F
Humidity 96%
Rainfall 0.00 in
Snow Depth Not available.
UV 0 out of 12
Pollen 4.90 out of 12
Air Quality Not available.
Flu Activity Not available.
METAR KSTS 201353Z COR 00000KT 7SM FEW006 OVC013 15/14 A2988 RMK AO2 SLP112 T01500139

More Conditions Fewer Conditions

Pressure 29.86 in
Visibility 7.0 miles
Clouds Few 600 ft
Overcast 1300 ft
Dew Point 57 °F
Humidity 96%
Rainfall 0.00 in
Snow Depth Not available.
UV 0 out of 12
Pollen 4.90 out of 12
Air Quality Not available.
Flu Activity Not available.
METAR KSTS 201353Z COR 00000KT 7SM FEW006 OVC013 15/14 A2988 RMK AO2 SLP112 T01500139

More Conditions Fewer Conditions

10-Day Weather Forecast

Almanac

Astronomy

Aug. 20, 2014 Rise Set
Actual Time 6:29 AM PDT 7:58 PM PDT
Civil Twilight 6:01 AM PDT 8:25 PM PDT
Nautical Twilight 5:28 AM PDT 8:59 PM PDT
Astronomical Twilight 4:52 AM PDT 9:34 PM PDT
Moon 2:15 AM PDT 4:45 PM PDT
Length of Visible Light 14h 23m
Length of Day
13h 28m
Tomorrow will be 2m 15s shorter.
Waning Crescent, 21% of the Moon is Illuminated
Today
Waning Crescent
Aug 25
New
Sep 2
First Quarter
Sep 8
Full
Sep 15
Last Quarter

Today's Extremes

State Highs State Lows

Community

WunderPhotos

Upload Photos

1,745,653 photos uploaded!

Nearby

Air Quality

  Air Quality AQ Index Pollutant
Wednesday Good
PM2.5
Thursday Good
PM2.5
Friday Good
PM2.5
Saturday Moderate
PM2.5
Sunday Moderate
PM2.5

Snow Depth

Station Depth Elevation
CSS Lab 2 in 6900 ft
Echo Peak 1 in 7800 ft
Tahoe City Cross 0 in 6750 ft
Fallen Leaf 0 in 6300 ft
Independence Camp 0 in 7000 ft

Earthquake Activity

City Distance Mag. Time & Date
The Geysers, California 21 miles 2.6 8:55 PM PDT
2014-08-13
Rio Dell, California 150 miles 2.5 6:16 PM PDT
2014-08-13
Upper Lake, California 61 miles 2.9 3:32 PM PDT
2014-08-13
Minimum magnitude displayed is 2.5.

Coastal Water Temperatures

Place Temperature
Point Reyes, CA 60.1 °F
Arena Cove, CA 55.9 °F
San Francisco, CA 64.9 °F
Richmond, CA 66.9 °F

Nearby Weather Stations